This is the latest recevied weather packets stored in our database for station/object EFTU. If no packets are shown the sender has not sent any weather packets the latest 10 day(s).
| Time | Temp. | Humidity | Pressure | Rain* | Wind** | Luminosity | Snow |
|---|---|---|---|---|---|---|---|
| 1777873635 | 5° C | 70% | 1005.1 hPa | - | - | - | - |
| 1777872435 | 4.44° C | 70% | 1005.3 hPa | - | - | - | - |
| 1777871235 | 4.44° C | 72% | 1005.6 hPa | - | - | - | - |
| 1777870034 | 4.44° C | 73% | 1005.9 hPa | - | - | - | - |
| 1777868835 | 3.89° C | 73% | 1006.2 hPa | - | - | - | - |
| 1777867635 | 3.33° C | 75% | 1006.2 hPa | - | - | - | - |
| 1777866435 | 3.33° C | 77% | 1006.4 hPa | - | - | - | - |
| 1777865235 | 2.78° C | 79% | 1006.7 hPa | - | - | - | - |
| 1777864035 | 1.67° C | 85% | 1006.9 hPa | - | - | - | - |
| 1777862834 | 1.11° C | 83% | 1007.1 hPa | - | - | - | - |
| 1777861635 | 1.11° C | 83% | 1007.3 hPa | - | - | - | - |
| 1777860434 | 1.67° C | 80% | 1007.3 hPa | - | - | - | - |
| 1777859235 | 2.78° C | 76% | 1007.5 hPa | - | - | - | - |
| 1777858034 | 2.78° C | 76% | 1007.7 hPa | - | - | - | - |
| 1777856836 | 3.33° C | 72% | 1007.7 hPa | - | - | - | - |
| 1777855634 | 3.89° C | 69% | 1007.8 hPa | - | - | - | - |
| 1777854435 | 3.89° C | 68% | 1007.9 hPa | - | - | - | - |
| 1777853234 | 3.89° C | 66% | 1008.1 hPa | - | - | - | - |
| 1777852034 | 4.44° C | 67% | 1008.1 hPa | - | - | - | - |
| 1777850834 | 4.44° C | 67% | 1008.3 hPa | - | - | - | - |
| 1777849634 | 4.44° C | 67% | 1008.3 hPa | - | - | - | - |
| 1777848434 | 4.44° C | 65% | 1008.5 hPa | - | - | - | - |
| 1777847234 | 4.44° C | 64% | 1008.6 hPa | - | - | - | - |
| 1777846034 | 4.44° C | 64% | 1008.5 hPa | - | - | - | - |
| 1777844833 | 5° C | 63% | 1008.9 hPa | - | - | - | - |
* Rain since midnight (hover to see other rain measurements)
** Current wind speed in m/s (hover to see current wind gust speed)